This is the latest recevied weather packets stored in our database for station/object DA6VK-10. If no packets are shown the sender has not sent any weather packets the latest 10 day(s).
| Time | Temp. | Humidity | Pressure | Rain* | Wind** | Luminosity | Snow |
|---|---|---|---|---|---|---|---|
| 1777473176 | 20° C | 29% | 1023.4 hPa | - | - | - | - |
| 1777445228 | 12.78° C | 30% | 1023.7 hPa | - | - | - | - |
| 1777445182 | 12.78° C | 30% | 1023.7 hPa | - | - | - | - |
| 1777444494 | 12.22° C | 31% | 1023.8 hPa | - | - | - | - |
| 1777443593 | 12.22° C | 31% | 1023.6 hPa | - | - | - | - |
| 1777442693 | 11.11° C | 33% | 1023.5 hPa | - | - | - | - |
| 1777441792 | 11.67° C | 33% | 1023.4 hPa | - | - | - | - |
| 1777440891 | 11.11° C | 34% | 1023.4 hPa | - | - | - | - |
| 1777439990 | 10.56° C | 35% | 1023.4 hPa | - | - | - | - |
| 1777438188 | 10° C | 37% | 1023.1 hPa | - | - | - | - |
| 1777437288 | 10° C | 37% | 1024.4 hPa | - | - | - | - |
| 1777436387 | 10.56° C | 37% | 1023 hPa | - | - | - | - |
| 1777434585 | 10.56° C | 38% | 1022.9 hPa | - | - | - | - |
| 1777433684 | 10.56° C | 38% | 1022.7 hPa | - | - | - | - |
| 1777432783 | 10.56° C | 39% | 1022.7 hPa | - | - | - | - |
| 1777431883 | 11.11° C | 39% | 1022.5 hPa | - | - | - | - |
| 1777430982 | 11.11° C | 39% | 1022.5 hPa | - | - | - | - |
| 1777430081 | 11.11° C | 40% | 1022.5 hPa | - | - | - | - |
| 1777429180 | 11.67° C | 39% | 1022.3 hPa | - | - | - | - |
| 1777427378 | 12.22° C | 39% | 1022.2 hPa | - | - | - | - |
| 1777426478 | 11.67° C | 40% | 1022.1 hPa | - | - | - | - |
| 1777425569 | 12.22° C | 40% | 1022.2 hPa | - | - | - | - |
| 1777421966 | 6.67° C | 39% | 1012.4 hPa | - | - | - | - |
| 1777420164 | 13.89° C | 37% | 1022.1 hPa | - | - | - | - |
| 1777419263 | 13.89° C | 36% | 1022.2 hPa | - | - | - | - |
* Rain since midnight (hover to see other rain measurements)
** Current wind speed in m/s (hover to see current wind gust speed)